Time;durP1;ratioP1;P1;durP2;ratioP2;P2;SDS_P1;SDS_P2;PMS_P1;PMS_P2;Temp;Humidity;BMP_temperature;BMP_pressure;BME280_temperature;BME280_humidity;BME280_pressure;Samples;Min_cycle;Max_cycle;Signal;HPM_P1;HPM_P2
2023/05/13 00:01:29;;;;;;;;;;;19.10;91.20;;;;;;5096110;28;19904;-60
2023/05/13 00:03:54;;;;;;;;;;;19.10;91.20;;;;;;5096273;28;19908;-60
2023/05/13 00:06:20;;;;;;;;;;;19.10;91.20;;;;;;5095953;28;20347;-60
2023/05/13 00:08:46;;;;;;;;;;;19.10;91.20;;;;;;5096127;28;19953;-60
2023/05/13 00:11:11;;;;;;;;;;;19.10;91.20;;;;;;5096506;28;19939;-60
2023/05/13 00:13:37;;;;;;;;;;;19.10;91.20;;;;;;5095822;28;19904;-60
2023/05/13 00:16:02;;;;;;;;;;;19.10;91.20;;;;;;5096440;28;19908;-60
2023/05/13 00:18:28;;;;;;;;;;;19.10;91.20;;;;;;5096067;28;20334;-60
2023/05/13 00:20:55;;;;;;;;;;;19.10;91.10;;;;;;5095661;28;19908;-60
2023/05/13 00:23:20;;;;;;;;;;;19.10;91.10;;;;;;5077669;28;19999;-60
2023/05/13 00:25:46;;;;;;;;;;;19.10;91.10;;;;;;5096193;28;19950;-60
2023/05/13 00:28:13;;;;;;;;;;;19.10;91.10;;;;;;5095766;28;19904;-60
2023/05/13 00:30:41;;;;;;;;;;;19.10;91.10;;;;;;5095731;28;19912;-60
2023/05/13 00:33:06;;;;;;;;;;;19.10;91.10;;;;;;5095798;28;19904;-60
2023/05/13 00:35:32;;;;;;;;;;;19.10;91.10;;;;;;5095442;28;19904;-60
2023/05/13 00:37:58;;;;;;;;;;;19.10;91.10;;;;;;5095398;28;19905;-60
2023/05/13 00:40:23;;;;;;;;;;;19.10;91.10;;;;;;5095922;28;19988;-60
2023/05/13 00:42:49;;;;;;;;;;;19.10;91.10;;;;;;5095585;28;20267;-60
2023/05/13 00:45:15;;;;;;;;;;;19.10;91.10;;;;;;5095464;28;19980;-60
2023/05/13 00:47:41;;;;;;;;;;;19.10;91.10;;;;;;5077041;28;19912;-61
2023/05/13 00:50:08;;;;;;;;;;;19.10;91.20;;;;;;5095287;28;19908;-60
2023/05/13 00:52:34;;;;;;;;;;;19.00;91.10;;;;;;5094385;28;19988;-60
2023/05/13 00:54:59;;;;;;;;;;;19.10;91.20;;;;;;5095344;28;19943;-60
2023/05/13 00:57:25;;;;;;;;;;;19.00;91.20;;;;;;5095323;28;20284;-60
2023/05/13 00:59:50;;;;;;;;;;;19.10;91.20;;;;;;5095027;28;19911;-61
2023/05/13 01:02:23;;;;;;;;;;;19.10;91.20;;;;;;5094944;28;19904;-60
2023/05/13 01:05:01;;;;;;;;;;;19.10;91.20;;;;;;5076776;28;19904;-60
2023/05/13 01:07:30;;;;;;;;;;;19.10;91.20;;;;;;5095122;28;19905;-60
2023/05/13 01:09:58;;;;;;;;;;;19.10;91.20;;;;;;5094781;28;19916;-60
2023/05/13 01:12:34;;;;;;;;;;;19.10;91.20;;;;;;5094774;28;19962;-60
2023/05/13 01:15:04;;;;;;;;;;;19.10;91.20;;;;;;5095001;28;19904;-60
2023/05/13 01:17:43;;;;;;;;;;;19.10;91.20;;;;;;5076615;28;19991;-60
2023/05/13 01:20:08;;;;;;;;;;;19.10;91.20;;;;;;5094905;28;19911;-60
2023/05/13 01:22:34;;;;;;;;;;;19.10;91.20;;;;;;5095236;28;19908;-60
2023/05/13 01:24:59;;;;;;;;;;;19.10;91.20;;;;;;5094837;28;19904;-60
2023/05/13 01:27:25;;;;;;;;;;;19.10;91.20;;;;;;5094840;28;19904;-60
2023/05/13 01:29:51;;;;;;;;;;;19.10;91.20;;;;;;5094422;28;20347;-60
2023/05/13 01:32:17;;;;;;;;;;;19.10;91.20;;;;;;5076522;28;20045;-60
2023/05/13 01:34:43;;;;;;;;;;;19.10;91.20;;;;;;5094393;28;19908;-60
2023/05/13 01:37:09;;;;;;;;;;;19.10;91.20;;;;;;5094356;28;19911;-60
2023/05/13 01:39:36;;;;;;;;;;;19.10;91.20;;;;;;5094628;28;19908;-61
2023/05/13 01:42:02;;;;;;;;;;;19.10;91.20;;;;;;5094471;28;19956;-60
2023/05/13 01:44:27;;;;;;;;;;;19.10;91.20;;;;;;5076574;28;19912;-60
2023/05/13 01:46:53;;;;;;;;;;;19.10;91.20;;;;;;5094296;28;19911;-60
2023/05/13 01:49:18;;;;;;;;;;;19.10;91.20;;;;;;5094328;28;19908;-60
2023/05/13 01:51:43;;;;;;;;;;;19.10;91.20;;;;;;5094516;28;19908;-60
2023/05/13 01:54:09;;;;;;;;;;;19.10;91.20;;;;;;5094164;28;19943;-60
2023/05/13 01:56:35;;;;;;;;;;;19.10;91.20;;;;;;5094419;28;20262;-60
2023/05/13 01:59:00;;;;;;;;;;;19.10;91.20;;;;;;5094389;28;20340;-60
2023/05/13 02:01:25;;;;;;;;;;;19.10;91.20;;;;;;5094360;28;19949;-60
2023/05/13 02:03:51;;;;;;;;;;;19.10;91.20;;;;;;5093931;28;19978;-60
2023/05/13 02:06:17;;;;;;;;;;;19.10;91.20;;;;;;5094198;28;19957;-60
2023/05/13 02:08:42;;;;;;;;;;;19.10;91.20;;;;;;5094119;28;19911;-60
2023/05/13 02:11:07;;;;;;;;;;;19.10;91.20;;;;;;5094237;28;19936;-60
2023/05/13 02:13:33;;;;;;;;;;;19.10;91.20;;;;;;5093877;28;20313;-60
2023/05/13 02:15:58;;;;;;;;;;;19.10;91.20;;;;;;5076067;28;20394;-60
2023/05/13 02:18:24;;;;;;;;;;;19.10;91.30;;;;;;5093897;28;19908;-60
2023/05/13 02:20:50;;;;;;;;;;;19.10;91.30;;;;;;5093836;28;19912;-60
2023/05/13 02:23:16;;;;;;;;;;;19.10;91.30;;;;;;5094462;28;19904;-60
2023/05/13 02:25:42;;;;;;;;;;;19.10;91.30;;;;;;5094133;28;19904;-60
2023/05/13 02:28:07;;;;;;;;;;;19.10;91.30;;;;;;5093773;28;20300;-60
2023/05/13 02:30:33;;;;;;;;;;;19.10;91.30;;;;;;5094079;28;20045;-60
2023/05/13 02:32:59;;;;;;;;;;;19.10;91.30;;;;;;5094072;28;19904;-60
2023/05/13 02:35:28;;;;;;;;;;;19.10;91.30;;;;;;5094075;28;19908;-60
2023/05/13 02:37:54;;;;;;;;;;;19.10;91.30;;;;;;5094161;28;19908;-60
2023/05/13 02:40:19;;;;;;;;;;;19.10;91.20;;;;;;5093975;28;19949;-60
2023/05/13 02:42:45;;;;;;;;;;;19.10;91.20;;;;;;5075654;28;19920;-60
2023/05/13 02:45:10;;;;;;;;;;;19.10;91.20;;;;;;5093936;28;19904;-60
2023/05/13 02:47:36;;;;;;;;;;;19.10;91.20;;;;;;5093974;28;19904;-60
2023/05/13 02:50:02;;;;;;;;;;;19.10;91.20;;;;;;5093581;28;19916;-60
2023/05/13 02:52:28;;;;;;;;;;;19.10;91.20;;;;;;5093615;28;19943;-60
2023/05/13 02:54:53;;;;;;;;;;;19.10;91.20;;;;;;5093665;28;19951;-60
2023/05/13 02:57:19;;;;;;;;;;;19.10;91.20;;;;;;5093838;28;19904;-60
2023/05/13 02:59:44;;;;;;;;;;;19.10;91.20;;;;;;5093785;28;19965;-60
2023/05/13 03:02:10;;;;;;;;;;;19.10;91.30;;;;;;5093599;28;19904;-60
2023/05/13 03:04:35;;;;;;;;;;;19.10;91.30;;;;;;5094113;28;19912;-60
2023/05/13 03:07:01;;;;;;;;;;;19.10;91.30;;;;;;5093455;28;19904;-60
2023/05/13 03:09:26;;;;;;;;;;;19.10;91.30;;;;;;5093683;28;19908;-60
2023/05/13 03:11:52;;;;;;;;;;;19.10;91.30;;;;;;5075642;28;19952;-60
2023/05/13 03:14:17;;;;;;;;;;;19.10;91.30;;;;;;5094425;28;19904;-60
2023/05/13 03:16:43;;;;;;;;;;;19.10;91.30;;;;;;5079185;28;19961;-60
2023/05/13 03:19:09;;;;;;;;;;;19.10;91.30;;;;;;5097206;28;19911;-60
2023/05/13 03:21:35;;;;;;;;;;;19.10;91.30;;;;;;5097118;28;19999;-60
2023/05/13 03:24:00;;;;;;;;;;;19.10;91.30;;;;;;5097129;28;20025;-60
2023/05/13 03:26:26;;;;;;;;;;;19.10;91.30;;;;;;5096753;28;19958;-60
2023/05/13 03:28:51;;;;;;;;;;;19.10;91.30;;;;;;5097150;28;20073;-60
2023/05/13 03:31:16;;;;;;;;;;;19.10;91.40;;;;;;5097282;28;19916;-60
2023/05/13 03:33:42;;;;;;;;;;;19.10;91.40;;;;;;5097226;28;19904;-60
2023/05/13 03:36:08;;;;;;;;;;;19.10;91.40;;;;;;5096904;28;19904;-60
2023/05/13 03:38:33;;;;;;;;;;;19.10;91.40;;;;;;5096593;28;19951;-60
2023/05/13 03:40:59;;;;;;;;;;;19.10;91.40;;;;;;5096783;28;19909;-60
2023/05/13 03:43:24;;;;;;;;;;;19.10;91.40;;;;;;5096810;28;19927;-60
2023/05/13 03:45:50;;;;;;;;;;;19.10;91.40;;;;;;5096663;28;19913;-60
2023/05/13 03:48:15;;;;;;;;;;;19.10;91.40;;;;;;5096623;28;20053;-61
2023/05/13 03:50:41;;;;;;;;;;;19.10;91.40;;;;;;5096280;28;19908;-58
2023/05/13 03:53:06;;;;;;;;;;;19.10;91.40;;;;;;5096432;28;19908;-61
2023/05/13 03:55:32;;;;;;;;;;;19.10;91.40;;;;;;5078337;28;19958;-61
2023/05/13 03:57:57;;;;;;;;;;;19.10;91.40;;;;;;5078337;28;19967;-60
2023/05/13 04:00:23;;;;;;;;;;;19.10;91.40;;;;;;5096112;28;20260;-60
2023/05/13 04:02:49;;;;;;;;;;;19.10;91.40;;;;;;5096082;28;19905;-61
2023/05/13 04:05:14;;;;;;;;;;;19.10;91.50;;;;;;5095912;28;19994;-61
2023/05/13 04:07:40;;;;;;;;;;;19.10;91.50;;;;;;5095960;28;19950;-61
2023/05/13 04:10:06;;;;;;;;;;;19.10;91.50;;;;;;5096133;28;19908;-60
2023/05/13 04:12:32;;;;;;;;;;;19.10;91.50;;;;;;5096435;28;20335;-61
2023/05/13 04:14:57;;;;;;;;;;;19.10;91.50;;;;;;5096105;28;19908;-61
2023/05/13 04:17:23;;;;;;;;;;;19.10;91.50;;;;;;5096182;28;19908;-61
2023/05/13 04:19:51;;;;;;;;;;;19.10;91.50;;;;;;5095790;28;20412;-61
2023/05/13 04:22:17;;;;;;;;;;;19.10;91.50;;;;;;5096269;28;20331;-61
2023/05/13 04:24:42;;;;;;;;;;;19.10;91.50;;;;;;5095657;28;19970;-61
2023/05/13 04:27:07;;;;;;;;;;;19.10;91.50;;;;;;5095602;28;19904;-61
2023/05/13 04:29:33;;;;;;;;;;;19.10;91.50;;;;;;5077724;28;19908;-60
2023/05/13 04:31:58;;;;;;;;;;;19.10;91.50;;;;;;5093809;28;20283;-60
2023/05/13 04:34:24;;;;;;;;;;;19.10;91.50;;;;;;5095243;28;19963;-61
2023/05/13 04:36:49;;;;;;;;;;;19.10;91.50;;;;;;5084141;28;19908;-61
2023/05/13 04:39:15;;;;;;;;;;;19.10;91.50;;;;;;5095499;28;19954;-61
2023/05/13 04:41:40;;;;;;;;;;;19.10;91.50;;;;;;5095165;28;19919;-61
2023/05/13 04:44:06;;;;;;;;;;;19.10;91.50;;;;;;5095841;28;19920;-61
2023/05/13 04:46:31;;;;;;;;;;;19.10;91.50;;;;;;5095348;28;20008;-61
2023/05/13 04:48:57;;;;;;;;;;;19.10;91.50;;;;;;5095164;28;19913;-61
2023/05/13 04:51:22;;;;;;;;;;;19.10;91.50;;;;;;5094973;28;19923;-61
2023/05/13 04:53:48;;;;;;;;;;;19.10;91.50;;;;;;5095104;28;19982;-61
2023/05/13 04:56:15;;;;;;;;;;;19.10;91.50;;;;;;5094796;28;19914;-61
2023/05/13 04:58:40;;;;;;;;;;;19.10;91.50;;;;;;5095028;28;19908;-61
2023/05/13 05:01:05;;;;;;;;;;;19.10;91.60;;;;;;5096032;28;20012;-61
2023/05/13 05:03:31;;;;;;;;;;;19.10;91.60;;;;;;5094925;28;19908;-61
2023/05/13 05:05:56;;;;;;;;;;;19.10;91.60;;;;;;5094750;28;20008;-61
2023/05/13 05:08:22;;;;;;;;;;;19.10;91.50;;;;;;5076756;28;19916;-61
2023/05/13 05:10:47;;;;;;;;;;;19.10;91.50;;;;;;5094791;28;20016;-61
2023/05/13 05:13:13;;;;;;;;;;;19.10;91.50;;;;;;5094706;28;19912;-60
2023/05/13 05:15:38;;;;;;;;;;;19.10;91.50;;;;;;5094589;28;20070;-61
2023/05/13 05:18:05;;;;;;;;;;;19.10;91.50;;;;;;5094869;28;20339;-61
2023/05/13 05:20:31;;;;;;;;;;;19.10;91.50;;;;;;5094664;28;19961;-61
2023/05/13 05:22:56;;;;;;;;;;;19.10;91.50;;;;;;5094759;28;19908;-61
2023/05/13 05:25:23;;;;;;;;;;;19.10;91.50;;;;;;5094383;28;19908;-61
2023/05/13 05:27:49;;;;;;;;;;;19.10;91.50;;;;;;5094363;28;20010;-61
2023/05/13 05:30:14;;;;;;;;;;;19.10;91.50;;;;;;5093727;28;20023;-60
2023/05/13 05:32:40;;;;;;;;;;;19.10;91.50;;;;;;5094059;28;20007;-60
2023/05/13 05:35:06;;;;;;;;;;;19.10;91.50;;;;;;5094423;28;19908;-61
2023/05/13 05:37:32;;;;;;;;;;;19.10;91.50;;;;;;5093793;28;20371;-61
2023/05/13 05:39:57;;;;;;;;;;;19.10;91.50;;;;;;5094778;28;19977;-61
2023/05/13 05:42:23;;;;;;;;;;;19.10;91.50;;;;;;5094102;28;19928;-60
2023/05/13 05:44:48;;;;;;;;;;;19.10;91.50;;;;;;5094098;28;19982;-59
2023/05/13 05:47:14;;;;;;;;;;;19.10;91.50;;;;;;5095411;28;19908;-60
2023/05/13 05:49:39;;;;;;;;;;;19.10;91.60;;;;;;5110877;28;20308;-58
2023/05/13 05:52:05;;;;;;;;;;;19.00;90.90;;;;;;5092370;28;19927;-59
2023/05/13 05:54:30;;;;;;;;;;;19.00;91.20;;;;;;5094253;28;19909;-59
2023/05/13 05:56:56;;;;;;;;;;;19.10;91.50;;;;;;5093905;28;19908;-59
2023/05/13 05:59:21;;;;;;;;;;;19.00;91.50;;;;;;5093998;28;19969;-59
2023/05/13 06:01:46;;;;;;;;;;;19.10;91.50;;;;;;5093800;28;19988;-59
2023/05/13 06:04:12;;;;;;;;;;;19.10;91.50;;;;;;5093457;28;19916;-59
2023/05/13 06:06:39;;;;;;;;;;;19.10;91.50;;;;;;5092110;28;19959;-59
2023/05/13 06:09:04;;;;;;;;;;;19.10;91.50;;;;;;5093735;28;19918;-59
2023/05/13 06:11:30;;;;;;;;;;;19.10;91.50;;;;;;5094478;28;19990;-59
2023/05/13 06:13:56;;;;;;;;;;;19.10;91.50;;;;;;5094194;28;19959;-59
2023/05/13 06:16:22;;;;;;;;;;;19.10;91.50;;;;;;5075773;28;19908;-59
2023/05/13 06:18:47;;;;;;;;;;;19.10;91.50;;;;;;5093817;28;19961;-59
2023/05/13 06:21:13;;;;;;;;;;;19.10;91.50;;;;;;5093791;28;19931;-59
2023/05/13 06:23:38;;;;;;;;;;;19.10;91.50;;;;;;5093931;28;20371;-59
2023/05/13 06:26:04;;;;;;;;;;;19.10;91.50;;;;;;5093896;28;19908;-60
2023/05/13 06:28:29;;;;;;;;;;;19.10;91.70;;;;;;5075769;28;19915;-60
2023/05/13 06:30:55;;;;;;;;;;;19.10;91.50;;;;;;5094052;28;19916;-59
2023/05/13 06:33:20;;;;;;;;;;;19.10;91.50;;;;;;5093699;28;19908;-60
2023/05/13 06:35:48;;;;;;;;;;;19.10;91.50;;;;;;5075512;28;20271;-60
2023/05/13 06:38:16;;;;;;;;;;;19.10;91.50;;;;;;5093209;28;20018;-60
2023/05/13 06:40:42;;;;;;;;;;;19.10;91.50;;;;;;5075885;28;20425;-59
2023/05/13 06:43:07;;;;;;;;;;;19.10;91.50;;;;;;5071997;28;19967;-60
2023/05/13 06:45:33;;;;;;;;;;;19.10;91.50;;;;;;5073153;28;19909;-60
2023/05/13 06:47:58;;;;;;;;;;;19.10;91.50;;;;;;5073177;28;20367;-60
2023/05/13 06:50:24;;;;;;;;;;;19.10;91.50;;;;;;5077056;28;19971;-60
2023/05/13 06:52:49;;;;;;;;;;;19.10;91.50;;;;;;5077534;28;19916;-60
2023/05/13 06:55:18;;;;;;;;;;;19.10;91.50;;;;;;5076872;28;20371;-60
2023/05/13 06:57:45;;;;;;;;;;;19.10;91.50;;;;;;5075431;28;19935;-60
2023/05/13 07:00:11;;;;;;;;;;;19.10;91.50;;;;;;5077081;28;19912;-60
2023/05/13 07:02:37;;;;;;;;;;;19.10;91.50;;;;;;5077002;28;20008;-60
2023/05/13 07:05:02;;;;;;;;;;;19.10;91.50;;;;;;5075736;28;19908;-59
2023/05/13 07:07:27;;;;;;;;;;;19.10;91.50;;;;;;5075716;28;20046;-60
2023/05/13 07:09:53;;;;;;;;;;;19.10;91.50;;;;;;5075347;28;19958;-60
2023/05/13 07:12:18;;;;;;;;;;;19.10;91.50;;;;;;5076429;28;19913;-60
2023/05/13 07:14:44;;;;;;;;;;;19.10;91.50;;;;;;5076515;28;19923;-60
2023/05/13 07:17:09;;;;;;;;;;;19.10;91.50;;;;;;5079576;28;20374;-59
2023/05/13 07:19:35;;;;;;;;;;;19.20;91.50;;;;;;5075255;28;19912;-60
2023/05/13 07:22:00;;;;;;;;;;;19.20;91.40;;;;;;5096536;28;20359;-60
2023/05/13 07:24:26;;;;;;;;;;;19.20;91.40;;;;;;5088627;28;19915;-60
2023/05/13 07:26:51;;;;;;;;;;;19.20;91.40;;;;;;5076291;28;19959;-60
2023/05/13 07:29:17;;;;;;;;;;;19.20;91.40;;;;;;5076335;28;19912;-60
2023/05/13 07:31:42;;;;;;;;;;;19.20;91.40;;;;;;5076221;28;20356;-60
2023/05/13 07:34:08;;;;;;;;;;;19.20;91.40;;;;;;5076490;28;19912;-60
2023/05/13 07:36:33;;;;;;;;;;;19.30;91.50;;;;;;5076064;28;20379;-60
2023/05/13 07:39:00;;;;;;;;;;;19.20;91.40;;;;;;5076641;28;19908;-60
2023/05/13 07:41:26;;;;;;;;;;;19.20;91.40;;;;;;5076350;28;19919;-60
2023/05/13 07:43:52;;;;;;;;;;;19.20;91.40;;;;;;5091685;28;20363;-60
2023/05/13 07:46:17;;;;;;;;;;;19.20;91.40;;;;;;5096384;28;19915;-60
2023/05/13 07:48:43;;;;;;;;;;;19.20;91.40;;;;;;5077699;28;19912;-60
2023/05/13 07:51:08;;;;;;;;;;;19.20;91.40;;;;;;5095959;28;19912;-60
2023/05/13 07:53:35;;;;;;;;;;;19.20;91.40;;;;;;5096327;28;19915;-60
2023/05/13 07:56:01;;;;;;;;;;;19.20;91.40;;;;;;5096241;28;19958;-60
2023/05/13 07:58:26;;;;;;;;;;;19.20;91.40;;;;;;5096052;28;19908;-60
2023/05/13 08:00:52;;;;;;;;;;;19.20;91.40;;;;;;5077265;28;19908;-60
2023/05/13 08:03:17;;;;;;;;;;;19.20;91.50;;;;;;5096017;28;20283;-60
2023/05/13 08:05:43;;;;;;;;;;;19.20;91.50;;;;;;5094537;28;20260;-60
2023/05/13 08:08:08;;;;;;;;;;;19.20;91.50;;;;;;5099907;28;20275;-60
2023/05/13 08:10:34;;;;;;;;;;;19.20;91.60;;;;;;5096600;28;20435;-60
2023/05/13 08:12:59;;;;;;;;;;;19.20;91.50;;;;;;5091780;28;19916;-60
2023/05/13 08:15:26;;;;;;;;;;;19.20;91.50;;;;;;5095311;28;19923;-61
2023/05/13 08:17:52;;;;;;;;;;;19.20;91.50;;;;;;5095669;28;20030;-60
2023/05/13 08:20:18;;;;;;;;;;;19.20;91.50;;;;;;5095456;28;19908;-60
2023/05/13 08:22:43;;;;;;;;;;;19.20;91.40;;;;;;5095142;28;20497;-60
2023/05/13 08:25:12;;;;;;;;;;;19.20;91.40;;;;;;5106670;28;19919;-60
2023/05/13 08:27:37;;;;;;;;;;;19.20;91.40;;;;;;5095122;28;19908;-60
2023/05/13 08:30:03;;;;;;;;;;;19.20;91.30;;;;;;5101177;28;20248;-60
2023/05/13 08:32:29;;;;;;;;;;;19.20;91.30;;;;;;5097274;28;20375;-60
2023/05/13 08:34:55;;;;;;;;;;;19.20;91.30;;;;;;5087579;28;19916;-60
2023/05/13 08:37:20;;;;;;;;;;;19.20;91.20;;;;;;5088549;28;19951;-60
2023/05/13 08:39:46;;;;;;;;;;;19.20;91.20;;;;;;5095028;28;19916;-60
2023/05/13 08:42:13;;;;;;;;;;;19.20;91.20;;;;;;5081093;28;20477;-60
2023/05/13 08:44:40;;;;;;;;;;;19.20;91.20;;;;;;5095103;28;20002;-60
2023/05/13 08:47:24;;;;;;;;;;;19.20;91.20;;;;;;5094710;28;19956;-60
2023/05/13 08:49:50;;;;;;;;;;;19.20;91.20;;;;;;5094695;28;19958;-60
2023/05/13 08:52:17;;;;;;;;;;;19.20;91.20;;;;;;5094838;28;19912;-60
2023/05/13 08:54:43;;;;;;;;;;;19.20;91.20;;;;;;5081229;28;19909;-59
2023/05/13 08:57:08;;;;;;;;;;;19.20;91.20;;;;;;5094846;28;20010;-60
2023/05/13 08:59:34;;;;;;;;;;;19.20;91.30;;;;;;5094882;28;19908;-60
2023/05/13 09:02:02;;;;;;;;;;;19.20;91.30;;;;;;5094866;28;19927;-60
2023/05/13 09:04:28;;;;;;;;;;;19.20;91.30;;;;;;5076756;28;19943;-60
2023/05/13 09:06:53;;;;;;;;;;;19.20;91.30;;;;;;5094903;28;19978;-59
2023/05/13 09:09:19;;;;;;;;;;;19.20;91.30;;;;;;5076666;28;19908;-59
2023/05/13 09:11:46;;;;;;;;;;;19.10;91.30;;;;;;5091059;28;20314;-60
2023/05/13 09:14:12;;;;;;;;;;;19.10;91.30;;;;;;5089117;28;19915;-60
2023/05/13 09:16:38;;;;;;;;;;;19.10;91.30;;;;;;5089920;28;20003;-60
2023/05/13 09:19:04;;;;;;;;;;;19.10;91.30;;;;;;5084503;28;19970;-60
2023/05/13 09:21:31;;;;;;;;;;;19.10;91.30;;;;;;5092339;28;19995;-61
2023/05/13 09:24:09;;;;;;;;;;;19.10;91.40;;;;;;5072502;28;20248;-59
2023/05/13 09:26:35;;;;;;;;;;;19.10;91.30;;;;;;5094279;28;20394;-59
2023/05/13 09:29:13;;;;;;;;;;;19.10;91.40;;;;;;5094335;28;19912;-60
2023/05/13 09:31:38;;;;;;;;;;;19.10;91.40;;;;;;5093943;28;19916;-60
2023/05/13 09:34:04;;;;;;;;;;;19.10;91.40;;;;;;5094378;28;19969;-60
2023/05/13 09:36:29;;;;;;;;;;;19.10;91.40;;;;;;5094023;28;19914;-60
2023/05/13 09:38:55;;;;;;;;;;;19.10;91.40;;;;;;5093941;28;20370;-61
2023/05/13 09:41:20;;;;;;;;;;;19.10;91.40;;;;;;5076120;28;19974;-60
2023/05/13 09:43:46;;;;;;;;;;;19.20;91.40;;;;;;5094271;28;19966;-60
2023/05/13 09:46:11;;;;;;;;;;;19.20;91.40;;;;;;5094546;28;20312;-60
2023/05/13 09:48:41;;;;;;;;;;;19.20;91.40;;;;;;5093863;28;19937;-60
2023/05/13 09:51:07;;;;;;;;;;;19.20;91.40;;;;;;5093681;28;19912;-60
2023/05/13 09:53:32;;;;;;;;;;;19.20;91.40;;;;;;5091991;28;19916;-61
2023/05/13 09:55:59;;;;;;;;;;;19.20;90.80;;;;;;5088158;28;19913;-60
2023/05/13 09:58:26;;;;;;;;;;;19.10;90.70;;;;;;5091897;28;20385;-60
2023/05/13 10:00:52;;;;;;;;;;;19.20;91.10;;;;;;5093392;28;19999;-60
2023/05/13 10:03:17;;;;;;;;;;;19.20;91.20;;;;;;5087513;28;20012;-61
2023/05/13 10:05:43;;;;;;;;;;;19.20;91.30;;;;;;5089020;28;19911;-61
2023/05/13 10:08:09;;;;;;;;;;;19.20;91.50;;;;;;5083202;28;19908;-60
2023/05/13 10:10:35;;;;;;;;;;;19.20;91.30;;;;;;5093398;28;20018;-60
2023/05/13 10:13:05;;;;;;;;;;;19.20;91.30;;;;;;5093627;28;19944;-59
2023/05/13 10:15:31;;;;;;;;;;;19.20;91.30;;;;;;5093569;28;19908;-60
2023/05/13 10:17:58;;;;;;;;;;;19.20;91.30;;;;;;5089158;28;19958;-60
2023/05/13 10:20:25;;;;;;;;;;;19.20;91.30;;;;;;5093499;28;20367;-59
2023/05/13 10:22:51;;;;;;;;;;;19.20;91.30;;;;;;5093730;28;19908;-60
2023/05/13 10:25:17;;;;;;;;;;;19.20;91.40;;;;;;5094440;28;20319;-60
2023/05/13 10:27:42;;;;;;;;;;;19.20;91.40;;;;;;5113300;28;20362;-60
2023/05/13 10:30:09;;;;;;;;;;;19.20;91.30;;;;;;5068345;28;19912;-60
2023/05/13 10:32:35;;;;;;;;;;;19.20;91.30;;;;;;5097859;28;19953;-60
2023/05/13 10:35:04;;;;;;;;;;;19.20;91.30;;;;;;5097402;28;19915;-60
2023/05/13 10:37:36;;;;;;;;;;;19.20;91.30;;;;;;5097398;28;19908;-60
2023/05/13 10:40:20;;;;;;;;;;;19.20;91.30;;;;;;5097840;28;19908;-60
2023/05/13 10:42:58;;;;;;;;;;;19.20;91.30;;;;;;5097789;28;19975;-60
2023/05/13 10:45:25;;;;;;;;;;;19.20;91.30;;;;;;5079592;28;19912;-60
2023/05/13 10:47:50;;;;;;;;;;;19.20;91.30;;;;;;5097012;28;19908;-60
2023/05/13 10:50:23;;;;;;;;;;;19.20;91.30;;;;;;5097008;28;19912;-61
2023/05/13 10:52:48;;;;;;;;;;;19.20;91.30;;;;;;5097560;28;20385;-60
2023/05/13 10:55:15;;;;;;;;;;;19.20;91.30;;;;;;5097722;28;20004;-60
2023/05/13 10:57:41;;;;;;;;;;;19.20;91.30;;;;;;5097073;28;20389;-60
2023/05/13 11:00:13;;;;;;;;;;;19.20;91.30;;;;;;5097122;28;19908;-60
2023/05/13 11:02:39;;;;;;;;;;;19.20;91.30;;;;;;5079118;28;20279;-60
2023/05/13 11:05:04;;;;;;;;;;;19.20;91.30;;;;;;5097024;28;19919;-60
2023/05/13 11:07:30;;;;;;;;;;;19.20;91.40;;;;;;5096752;28;19918;-60
2023/05/13 11:09:55;;;;;;;;;;;19.20;91.30;;;;;;5095121;28;19932;-60
2023/05/13 11:12:21;;;;;;;;;;;19.20;91.30;;;;;;5077037;28;19946;-60
2023/05/13 11:14:46;;;;;;;;;;;19.20;91.40;;;;;;5095216;28;19940;-60
2023/05/13 11:17:13;;;;;;;;;;;19.20;91.40;;;;;;5095068;28;19908;-60
2023/05/13 11:19:45;;;;;;;;;;;19.20;91.40;;;;;;5094848;28;20392;-61
2023/05/13 11:22:28;;;;;;;;;;;19.20;91.40;;;;;;5095718;28;19908;-60
2023/05/13 11:25:04;;;;;;;;;;;19.20;91.40;;;;;;5091312;28;19913;-60
2023/05/13 11:27:32;;;;;;;;;;;19.20;91.40;;;;;;5109730;28;19916;-60
2023/05/13 11:29:57;;;;;;;;;;;19.20;91.60;;;;;;5096246;28;19965;-60
2023/05/13 11:32:43;;;;;;;;;;;19.20;91.40;;;;;;5108467;28;19920;-60
2023/05/13 11:35:09;;;;;;;;;;;19.20;91.40;;;;;;5088943;28;20300;-60
2023/05/13 11:37:40;;;;;;;;;;;19.20;91.30;;;;;;5082746;28;19912;-60
2023/05/13 11:40:07;;;;;;;;;;;19.20;91.30;;;;;;5096981;28;19909;-60
2023/05/13 11:42:32;;;;;;;;;;;19.30;91.30;;;;;;5096559;28;20290;-60
2023/05/13 11:44:58;;;;;;;;;;;19.30;91.40;;;;;;5078313;28;19915;-60
2023/05/13 11:47:29;;;;;;;;;;;19.30;91.40;;;;;;5095805;28;19915;-60
2023/05/13 11:49:56;;;;;;;;;;;19.30;91.40;;;;;;5095706;28;19939;-60
2023/05/13 11:52:21;;;;;;;;;;;19.30;91.40;;;;;;5095858;28;19969;-60
2023/05/13 11:54:48;;;;;;;;;;;19.30;91.30;;;;;;5095894;28;19978;-60
2023/05/13 11:57:15;;;;;;;;;;;19.30;91.40;;;;;;5095907;28;19915;-60
2023/05/13 11:59:40;;;;;;;;;;;19.30;91.60;;;;;;5095962;28;19908;-60
2023/05/13 12:02:06;;;;;;;;;;;19.20;91.30;;;;;;5095866;28;19962;-60
2023/05/13 12:04:31;;;;;;;;;;;19.30;91.40;;;;;;5096105;28;19994;-60
2023/05/13 12:06:57;;;;;;;;;;;19.30;91.40;;;;;;5093387;28;19931;-60
2023/05/13 12:09:22;;;;;;;;;;;19.30;91.40;;;;;;5094979;28;19916;-60
2023/05/13 12:11:49;;;;;;;;;;;19.30;91.40;;;;;;5095265;28;20411;-60
2023/05/13 12:14:15;;;;;;;;;;;19.30;91.40;;;;;;5096859;28;19908;-60
2023/05/13 12:16:41;;;;;;;;;;;19.30;91.40;;;;;;5095454;28;20382;-60
2023/05/13 12:19:06;;;;;;;;;;;19.30;91.40;;;;;;5095785;28;19916;-60
2023/05/13 12:21:33;;;;;;;;;;;19.30;91.40;;;;;;5105917;28;19919;-60
2023/05/13 12:23:59;;;;;;;;;;;19.30;91.40;;;;;;5095641;28;19908;-60
2023/05/13 12:26:24;;;;;;;;;;;19.30;91.40;;;;;;5088851;28;19911;-61
2023/05/13 12:28:57;;;;;;;;;;;19.30;91.40;;;;;;5115777;28;19908;-62
2023/05/13 12:31:23;;;;;;;;;;;19.30;91.40;;;;;;5110129;28;19920;-61
2023/05/13 12:33:48;;;;;;;;;;;19.30;91.40;;;;;;5080966;28;20026;-61
2023/05/13 12:36:18;;;;;;;;;;;19.30;91.30;;;;;;5098457;28;19911;-61
2023/05/13 12:39:04;;;;;;;;;;;19.30;91.30;;;;;;5098306;28;20046;-62
2023/05/13 12:41:30;;;;;;;;;;;19.30;91.30;;;;;;5115812;28;19919;-60
2023/05/13 12:43:59;;;;;;;;;;;19.30;91.20;;;;;;5109144;28;19924;-60
2023/05/13 12:46:25;;;;;;;;;;;19.30;91.30;;;;;;5066915;28;19917;-60
2023/05/13 12:48:51;;;;;;;;;;;19.30;91.40;;;;;;5115314;28;19931;-62
2023/05/13 12:51:17;;;;;;;;;;;19.30;90.90;;;;;;5086782;28;20354;-62
2023/05/13 12:53:44;;;;;;;;;;;19.20;90.60;;;;;;5109424;28;20193;-60
2023/05/13 12:56:10;;;;;;;;;;;19.20;90.70;;;;;;5081804;28;19960;-60
2023/05/13 12:58:36;;;;;;;;;;;19.20;91.10;;;;;;5115451;28;19912;-60
2023/05/13 13:01:01;;;;;;;;;;;19.20;91.20;;;;;;5087050;28;20442;-60
2023/05/13 13:03:27;;;;;;;;;;;19.20;91.30;;;;;;5073624;28;20006;-61
2023/05/13 13:05:52;;;;;;;;;;;19.20;91.30;;;;;;5074158;28;20378;-61
2023/05/13 13:08:18;;;;;;;;;;;19.20;91.30;;;;;;5085117;28;19912;-60
2023/05/13 13:10:43;;;;;;;;;;;19.20;91.30;;;;;;5094435;28;20343;-61
2023/05/13 13:13:09;;;;;;;;;;;19.20;91.30;;;;;;5094311;28;19965;-60
2023/05/13 13:15:34;;;;;;;;;;;19.20;91.30;;;;;;5094675;28;20580;-60
2023/05/13 13:18:00;;;;;;;;;;;19.20;91.50;;;;;;5094350;28;19908;-61
2023/05/13 13:20:25;;;;;;;;;;;19.20;91.30;;;;;;5094252;28;19964;-61
2023/05/13 13:22:52;;;;;;;;;;;19.20;91.30;;;;;;5094308;28;19915;-61
2023/05/13 13:25:18;;;;;;;;;;;19.20;91.30;;;;;;5093506;28;19912;-61
2023/05/13 13:27:43;;;;;;;;;;;19.20;91.30;;;;;;5094268;28;19916;-59
2023/05/13 13:30:09;;;;;;;;;;;19.20;91.30;;;;;;5093978;28;20278;-60
2023/05/13 13:32:35;;;;;;;;;;;19.20;91.30;;;;;;5094217;28;19923;-61
2023/05/13 13:35:02;;;;;;;;;;;19.20;91.30;;;;;;5094357;28;19909;-60
2023/05/13 13:37:29;;;;;;;;;;;19.20;91.30;;;;;;5093133;28;19909;-60
2023/05/13 13:39:54;;;;;;;;;;;19.20;91.20;;;;;;5093925;28;20391;-62
2023/05/13 13:42:20;;;;;;;;;;;19.20;91.20;;;;;;5093440;28;19947;-61
2023/05/13 13:44:46;;;;;;;;;;;19.20;91.10;;;;;;5083873;28;20271;-60
2023/05/13 13:47:11;;;;;;;;;;;19.20;91.10;;;;;;5114383;28;19908;-61
2023/05/13 13:49:37;;;;;;;;;;;19.20;91.10;;;;;;5107303;28;19912;-60
2023/05/13 13:52:02;;;;;;;;;;;19.20;91.20;;;;;;5094149;28;20366;-62
2023/05/13 13:54:28;;;;;;;;;;;19.20;91.20;;;;;;5093808;28;19908;-61
2023/05/13 13:56:53;;;;;;;;;;;19.20;91.20;;;;;;5094042;28;19908;-61
2023/05/13 13:59:19;;;;;;;;;;;19.20;91.20;;;;;;5101444;28;20053;-60
2023/05/13 14:01:44;;;;;;;;;;;19.20;91.40;;;;;;5093679;28;20341;-61
2023/05/13 14:04:11;;;;;;;;;;;19.20;91.20;;;;;;5109610;28;20278;-61
2023/05/13 14:06:36;;;;;;;;;;;19.20;91.20;;;;;;5114181;28;20251;-61
2023/05/13 14:09:02;;;;;;;;;;;19.20;91.20;;;;;;5114197;28;19915;-61
2023/05/13 14:11:28;;;;;;;;;;;19.20;91.20;;;;;;5096060;28;19919;-61